Time;durP1;ratioP1;P1;durP2;ratioP2;P2;SDS_P1;SDS_P2;PMS_P1;PMS_P2;Temp;Humidity;BMP_temperature;BMP_pressure;BME280_temperature;BME280_humidity;BME280_pressure;Samples;Min_cycle;Max_cycle;Signal;HPM_P1;HPM_P2
2022/03/11 00:00:52;;;;;;;4.00;3.35;;;0.20;1.40;;;0.75;97.68;95744.45;646688;216;31623;-77
2022/03/11 00:03:40;;;;;;;4.37;3.35;;;0.00;1.40;;;0.60;96.60;95747.86;646355;216;31572;-75
2022/03/11 00:06:28;;;;;;;4.47;3.42;;;-0.10;1.40;;;0.64;97.16;95748.74;648344;216;32199;-76
2022/03/11 00:09:15;;;;;;;4.15;3.75;;;0.00;1.40;;;0.60;96.48;95754.09;646185;216;31608;-73
2022/03/11 00:11:58;;;;;;;6.12;4.90;;;-0.10;1.40;;;0.47;96.71;95752.62;631328;220;31658;-76
2022/03/11 00:14:56;;;;;;;3.40;3.10;;;-0.10;1.40;;;0.42;96.92;95744.45;621446;222;32504;-75
2022/03/11 00:17:37;;;;;;;5.47;3.08;;;-0.20;1.40;;;0.39;95.63;95744.17;647242;212;31719;-75
2022/03/11 00:20:21;;;;;;;3.58;2.60;;;-0.20;1.40;;;0.32;96.30;95740.04;646373;216;31556;-75
2022/03/11 00:23:03;;;;;;;5.25;3.58;;;-0.10;1.40;;;0.30;95.78;95736.20;647680;216;31876;-75
2022/03/11 00:25:45;;;;;;;3.22;2.85;;;-0.30;1.40;;;0.25;94.41;95731.05;648261;216;32171;-75
2022/03/11 00:28:29;;;;;;;4.20;3.28;;;-0.30;1.40;;;0.21;93.67;95738.04;619531;222;31899;-75
2022/03/11 00:31:11;;;;;;;4.20;3.70;;;-0.40;1.40;;;0.19;93.28;95736.30;647460;216;31576;-75
2022/03/11 00:35:51;;;;;;;4.85;2.37;;;-0.60;1.40;;;0.05;92.65;95743.28;647268;212;31566;-76
2022/03/11 00:38:33;;;;;;;7.10;3.40;;;-0.60;1.40;;;-0.01;93.12;95744.41;648212;216;31883;-76
2022/03/11 00:41:16;;;;;;;4.30;2.95;;;-0.60;1.40;;;-0.05;92.76;95739.31;619136;222;31956;-75
2022/03/11 00:43:59;;;;;;;3.97;3.10;;;-0.80;1.40;;;-0.13;92.18;95735.69;646967;216;42604;-75
2022/03/11 00:46:41;;;;;;;2.92;2.58;;;-0.80;1.40;;;-0.08;92.36;95737.95;648130;216;32256;-76
2022/03/11 00:49:24;;;;;;;5.30;4.03;;;-0.50;1.40;;;-0.10;91.51;95732.79;646928;213;32371;-76
2022/03/11 00:52:06;;;;;;;5.82;3.28;;;-0.50;1.40;;;-0.12;91.20;95734.17;619420;222;32088;-76
2022/03/11 00:54:48;;;;;;;5.05;3.45;;;-0.50;1.40;;;-0.15;90.45;95725.53;619767;226;31926;-76
2022/03/11 00:57:30;;;;;;;5.12;3.70;;;-0.70;1.40;;;-0.23;90.45;95723.20;646604;216;31579;-75
2022/03/11 01:00:16;;;;;;;5.45;3.30;;;-0.80;1.40;;;-0.25;89.95;95721.81;646444;216;31895;-73
2022/03/11 01:03:04;;;;;;;3.10;2.80;;;-0.90;1.40;;;-0.34;89.77;95722.64;646974;216;31590;-75
2022/03/11 01:05:46;;;;;;;4.47;2.70;;;-1.00;1.40;;;-0.50;90.04;95722.86;648106;216;31609;-76
2022/03/11 01:08:28;;;;;;;3.08;2.72;;;-1.20;1.40;;;-0.51;90.54;95721.79;647305;212;31653;-75
2022/03/11 01:11:11;;;;;;;3.30;2.58;;;-1.10;1.40;;;-0.46;90.25;95722.23;648046;216;31602;-76
2022/03/11 01:13:52;;;;;;;2.70;2.40;;;-0.90;1.40;;;-0.50;89.14;95721.38;647131;216;31592;-75
2022/03/11 01:16:34;;;;;;;2.03;1.70;;;-1.00;1.40;;;-0.47;88.42;95716.34;647160;216;31667;-76
2022/03/11 01:19:15;;;;;;;3.37;2.55;;;-0.90;1.40;;;-0.48;87.52;95724.94;618802;225;32050;-76
2022/03/11 01:21:57;;;;;;;2.80;2.50;;;-0.90;1.40;;;-0.52;87.26;95717.61;647551;216;31645;-76
2022/03/11 01:24:40;;;;;;;2.90;2.60;;;-0.90;1.40;;;-0.59;86.86;95715.13;648216;216;32152;-76
2022/03/11 01:27:22;;;;;;;2.70;1.92;;;-0.90;1.40;;;-0.54;86.06;95715.68;647999;212;31808;-76
2022/03/11 01:30:05;;;;;;;5.18;3.80;;;-0.80;1.40;;;-0.61;85.09;95718.05;648396;212;32520;-75
2022/03/11 01:32:55;;;;;;;1.83;1.58;;;-1.00;1.40;;;-0.72;85.21;95712.81;650250;212;32100;-76
2022/03/11 01:35:57;;;;;;;2.20;1.90;;;-1.20;1.40;;;-0.81;85.35;95710.05;630600;220;31759;-74
2022/03/11 01:38:56;;;;;;;2.65;2.10;;;-1.20;1.40;;;-0.74;84.47;95703.81;620964;222;32046;-77
2022/03/11 01:41:46;;;;;;;4.32;2.53;;;-1.00;1.40;;;-0.79;84.13;95699.03;649921;216;31569;-75
2022/03/11 01:44:28;;;;;;;2.30;2.10;;;-1.10;1.40;;;-0.82;83.87;95698.36;647233;216;31588;-76
2022/03/11 01:47:12;;;;;;;3.65;2.00;;;-1.00;1.40;;;-0.76;83.01;95703.15;647245;216;32051;-75
2022/03/11 01:49:54;;;;;;;3.20;2.50;;;-1.10;1.40;;;-0.82;82.38;95696.19;647237;212;31739;-75
2022/03/11 01:52:38;;;;;;;1.85;1.75;;;-1.00;1.40;;;-0.84;81.85;95695.34;646688;212;31572;-76
2022/03/11 01:55:22;;;;;;;2.72;1.77;;;-1.20;1.40;;;-0.90;81.99;95688.15;646784;216;31626;-75
2022/03/11 01:58:04;;;;;;;1.90;1.33;;;-1.30;1.40;;;-0.92;81.53;95683.42;646690;216;31610;-76
2022/03/11 02:00:52;;;;;;;2.05;1.45;;;-1.10;1.40;;;-0.84;80.18;95682.73;645882;212;32123;-75
2022/03/11 02:03:33;;;;;;;3.40;1.98;;;-1.00;1.40;;;-0.97;80.25;95692.38;646798;212;31576;-76
2022/03/11 02:06:21;;;;;;;3.00;2.50;;;-1.30;1.40;;;-0.99;80.16;95689.98;644142;216;31752;-76
2022/03/11 02:09:03;;;;;;;2.15;1.27;;;-1.40;1.40;;;-1.03;80.26;95691.77;645897;216;31800;-76
2022/03/11 02:11:46;;;;;;;3.15;2.03;;;-1.40;1.40;;;-0.88;78.60;95689.91;646455;212;31622;-75
2022/03/11 02:14:31;;;;;;;2.17;1.98;;;-1.10;1.40;;;-0.88;77.78;95691.50;647050;216;31562;-76
2022/03/11 02:17:14;;;;;;;2.72;1.58;;;-1.30;1.40;;;-0.94;77.65;95689.48;647858;212;31566;-75
2022/03/11 02:19:56;;;;;;;4.40;2.30;;;-1.40;1.40;;;-1.01;78.01;95692.25;648376;216;31584;-76
2022/03/11 02:22:38;;;;;;;2.65;1.42;;;-1.50;1.40;;;-1.17;78.36;95693.23;645732;216;31603;-76
2022/03/11 02:25:23;;;;;;;2.10;1.52;;;-1.60;1.40;;;-1.09;77.46;95695.05;648057;212;31553;-76
2022/03/11 02:28:08;;;;;;;2.72;1.37;;;-1.40;1.40;;;-1.19;77.68;95690.68;646363;216;31565;-76
2022/03/11 02:31:01;;;;;;;4.05;1.90;;;-1.50;1.40;;;-1.29;77.92;95692.03;646273;216;31953;-75
2022/03/11 02:35:54;;;;;;;2.62;2.03;;;-1.60;1.40;;;-1.31;78.08;95686.83;646612;216;42563;-76
2022/03/11 02:38:36;;;;;;;3.28;1.98;;;-1.70;1.40;;;-1.38;78.23;95688.76;619926;226;33111;-76
2022/03/11 02:41:24;;;;;;;2.30;1.25;;;-1.80;1.40;;;-1.46;78.30;95694.13;647821;216;31564;-74
2022/03/11 02:44:11;;;;;;;1.85;1.45;;;-1.90;1.40;;;-1.46;77.77;95687.47;648447;212;32015;-77
2022/03/11 02:46:53;;;;;;;3.17;1.87;;;-1.90;1.40;;;-1.50;78.21;95687.30;648067;212;31539;-76
2022/03/11 02:49:35;;;;;;;2.90;1.90;;;-1.90;1.40;;;-1.42;76.84;95690.84;647205;212;31567;-76
2022/03/11 02:52:16;;;;;;;2.20;1.50;;;-1.70;1.40;;;-1.46;76.77;95688.60;646934;212;31549;-76
2022/03/11 02:54:59;;;;;;;3.80;2.10;;;-1.70;1.40;;;-1.50;76.08;95687.55;620856;226;32223;-76
2022/03/11 02:57:46;;;;;;;2.42;2.22;;;-1.90;1.40;;;-1.51;75.76;95689.32;645954;212;31615;-74
2022/03/11 03:00:28;;;;;;;1.60;1.50;;;-1.80;1.40;;;-1.58;76.09;95687.95;646343;212;32174;-75
2022/03/11 03:03:16;;;;;;;1.90;1.10;;;-1.90;1.40;;;-1.70;76.85;95686.52;647826;216;31580;-76
2022/03/11 03:06:04;;;;;;;1.85;1.48;;;-2.00;1.40;;;-1.73;76.94;95681.81;647837;216;32225;-74
2022/03/11 03:08:47;;;;;;;1.65;1.08;;;-1.90;1.40;;;-1.69;76.74;95680.55;646166;216;31580;-76
2022/03/11 03:11:34;;;;;;;2.20;1.10;;;-2.00;1.40;;;-1.67;76.72;95681.53;647203;216;31537;-74
2022/03/11 03:14:22;;;;;;;1.60;1.10;;;-1.90;1.40;;;-1.61;75.52;95679.28;646556;212;31668;-76
2022/03/11 03:17:06;;;;;;;1.90;1.80;;;-1.80;1.40;;;-1.60;74.75;95684.82;619533;223;32054;-76
2022/03/11 03:19:54;;;;;;;1.60;1.40;;;-1.80;1.40;;;-1.54;73.89;95676.00;646868;212;32153;-75
2022/03/11 03:22:36;;;;;;;1.80;1.20;;;-1.70;1.40;;;-1.58;73.70;95674.08;646359;216;31838;-74
2022/03/11 03:25:24;;;;;;;1.70;1.20;;;-1.80;1.40;;;-1.65;73.79;95676.75;645606;215;31924;-77
2022/03/11 03:28:12;;;;;;;2.00;1.70;;;-1.90;1.40;;;-1.69;73.70;95670.34;646533;216;31560;-75
2022/03/11 03:30:59;;;;;;;1.70;1.27;;;-1.80;1.40;;;-1.65;73.50;95671.44;647381;212;31612;-77
2022/03/11 03:35:54;;;;;;;2.35;2.10;;;-2.00;1.40;;;-1.89;74.21;95670.64;647540;216;31604;-77
2022/03/11 03:38:37;;;;;;;2.67;1.50;;;-2.10;1.40;;;-1.79;74.36;95670.44;619450;226;31905;-76
2022/03/11 03:41:19;;;;;;;4.68;1.35;;;-2.00;1.40;;;-1.58;72.82;95666.64;646367;216;31585;-76
2022/03/11 03:44:01;;;;;;;2.17;1.10;;;-1.80;1.40;;;-1.77;73.54;95663.42;647466;216;31574;-76
2022/03/11 03:46:45;;;;;;;1.55;1.00;;;-2.00;1.40;;;-1.85;74.25;95658.41;618642;222;32244;-74
2022/03/11 03:49:28;;;;;;;1.20;1.10;;;-2.20;1.40;;;-1.97;74.95;95659.61;645948;216;31758;-75
2022/03/11 03:52:11;;;;;;;2.08;1.87;;;-2.40;1.40;;;-1.98;75.20;95653.34;646291;216;31849;-75
2022/03/11 03:54:49;;;;;;;1.70;1.00;;;-2.30;1.40;;;-2.03;75.91;95654.45;646600;216;31572;-74
2022/03/11 03:57:32;;;;;;;4.00;2.15;;;-2.50;1.40;;;-2.00;75.55;95656.56;647601;216;31761;-74
2022/03/11 04:00:13;;;;;;;2.78;1.25;;;-2.30;1.40;;;-2.10;76.36;95660.76;619302;225;31901;-76
2022/03/11 04:02:55;;;;;;;1.42;1.20;;;-2.40;1.40;;;-2.16;76.91;95660.70;645659;216;31625;-74
2022/03/11 04:05:48;;;;;;;3.17;1.70;;;-2.40;1.40;;;-2.16;77.08;95657.13;649738;212;31620;-75
2022/03/11 04:08:40;;;;;;;1.08;1.00;;;-2.40;1.40;;;-2.14;77.11;95655.23;636446;216;31692;-75
2022/03/11 04:11:25;;;;;;;3.15;1.42;;;-2.30;1.40;;;-2.20;77.43;95664.64;617794;222;31952;-75
2022/03/11 04:14:16;;;;;;;3.85;1.40;;;-2.50;1.40;;;-2.27;77.88;95664.50;630640;221;31754;-75
2022/03/11 04:17:06;;;;;;;1.20;1.10;;;-2.50;1.40;;;-2.24;77.68;95665.13;647272;216;31537;-76
2022/03/11 04:19:54;;;;;;;2.95;1.90;;;-2.40;1.40;;;-2.27;78.02;95669.40;624953;222;32048;-75
2022/03/11 04:22:49;;;;;;;1.75;1.30;;;-2.50;1.40;;;-2.31;78.51;95668.01;619918;225;31967;-75
2022/03/11 04:35:53;;;;;;;1.47;0.97;;;-2.80;1.40;;;-2.59;80.25;95664.66;639244;217;31691;-76
2022/03/11 04:38:41;;;;;;;1.23;1.12;;;-2.90;1.40;;;-2.64;81.12;95663.46;647912;216;31545;-75
2022/03/11 04:41:33;;;;;;;1.17;1.17;;;-2.90;1.40;;;-2.73;81.44;95654.99;645746;216;43337;-76
2022/03/11 04:44:15;;;;;;;4.43;1.23;;;-3.10;1.40;;;-2.58;81.65;95660.88;646208;216;31551;-73
2022/03/11 04:47:05;;;;;;;2.17;1.97;;;-2.80;1.40;;;-2.67;81.85;95656.45;648097;212;41650;-75
2022/03/11 04:49:53;;;;;;;1.60;1.50;;;-2.90;1.40;;;-2.72;81.77;95658.00;646161;216;31583;-74
2022/03/11 04:52:43;;;;;;;2.37;1.08;;;-3.00;1.40;;;-2.76;82.23;95657.20;650603;216;31523;-76
2022/03/11 05:09:15;;;;;;;1.50;1.40;;;-3.10;1.40;;;-2.90;83.92;95650.72;646903;216;32152;-76
2022/03/11 05:12:03;;;;;;;2.45;1.17;;;-3.30;1.40;;;-2.95;83.62;95647.11;619896;222;32513;-76
2022/03/11 05:14:51;;;;;;;1.20;1.20;;;-3.40;1.40;;;-2.81;83.65;95640.52;648411;212;31547;-75
2022/03/11 05:17:41;;;;;;;3.40;1.55;;;-3.10;1.40;;;-2.75;83.68;95636.70;620602;226;42703;-76
2022/03/11 05:20:24;;;;;;;9.93;2.20;;;-2.90;1.40;;;-2.80;83.54;95630.67;626692;222;31906;-75
2022/03/11 05:23:12;;;;;;;2.58;2.47;;;-3.00;1.40;;;-2.86;83.78;95623.58;649850;216;32385;-75
2022/03/11 05:26:00;;;;;;;3.25;1.50;;;-3.20;1.40;;;-2.88;84.69;95624.94;642809;216;31584;-75
2022/03/11 05:28:48;;;;;;;3.00;1.20;;;-3.20;1.40;;;-2.85;84.53;95623.78;648668;212;31517;-76
2022/03/11 05:31:32;;;;;;;2.30;2.10;;;-3.10;1.40;;;-2.76;84.00;95624.94;645797;216;32066;-74
2022/03/11 05:35:57;;;;;;;2.40;1.57;;;-3.10;1.40;;;-2.84;84.64;95622.85;623764;224;31987;-75
2022/03/11 05:38:42;;;;;;;2.10;1.90;;;-3.00;1.40;;;-2.79;85.08;95628.95;646775;212;31601;-76
2022/03/11 05:41:23;;;;;;;2.28;2.08;;;-3.00;1.40;;;-2.80;84.83;95629.30;646960;216;31654;-74
2022/03/11 05:46:17;;;;;;;3.27;2.10;;;-3.00;1.40;;;-2.74;85.39;95636.56;630417;220;36175;-74
2022/03/11 05:49:03;;;;;;;0.70;0.70;;;-2.90;1.40;;;-2.77;85.21;95641.98;646580;216;38705;-75
2022/03/11 05:51:45;;;;;;;1.67;1.57;;;-3.00;1.40;;;-2.75;85.28;95645.45;646368;216;31542;-74
2022/03/11 05:54:31;;;;;;;1.83;1.40;;;-3.00;1.40;;;-2.67;85.05;95644.33;632249;217;31703;-76
2022/03/11 05:57:16;;;;;;;2.25;1.35;;;-2.90;1.40;;;-2.62;84.51;95645.48;620305;222;32084;-77
2022/03/11 06:00:12;;;;;;;2.03;1.62;;;-2.90;1.40;;;-2.60;84.49;95646.89;648476;216;31686;-76
2022/03/11 06:13:46;;;;;;;2.17;1.58;;;-2.60;1.40;;;-2.39;83.67;95658.80;645606;212;32127;-74
2022/03/11 06:16:28;;;;;;;3.75;2.10;;;-2.50;1.40;;;-2.34;83.26;95663.36;646360;216;31564;-74
2022/03/11 06:19:19;;;;;;;4.10;1.92;;;-2.60;1.40;;;-2.24;83.64;95663.66;655646;213;31334;-78
2022/03/11 06:22:06;;;;;;;2.00;1.80;;;-2.60;1.40;;;-2.26;83.79;95662.42;646386;213;32019;-76
2022/03/11 06:24:48;;;;;;;3.42;2.10;;;-2.60;1.40;;;-2.15;83.76;95664.13;646498;216;31604;-75
2022/03/11 06:27:29;;;;;;;3.22;1.60;;;-2.60;1.40;;;-2.11;83.15;95656.05;619975;225;31946;-74
2022/03/11 06:30:11;;;;;;;2.30;1.80;;;-2.30;1.40;;;-2.05;82.50;95662.67;645552;216;31592;-75
2022/03/11 06:32:52;;;;;;;4.07;2.90;;;-2.20;1.40;;;-2.00;82.37;95668.69;645687;216;31525;-75
2022/03/11 06:35:54;;;;;;;1.98;1.83;;;-2.10;1.40;;;-1.88;81.88;95667.71;647055;216;31597;-74
2022/03/11 06:38:36;;;;;;;3.30;1.77;;;-2.10;1.40;;;-1.84;81.46;95672.20;648376;212;31979;-75
2022/03/11 06:41:18;;;;;;;2.53;2.08;;;-2.00;1.40;;;-1.79;81.08;95672.83;646925;216;31680;-72
2022/03/11 06:43:59;;;;;;;1.90;1.75;;;-1.90;1.40;;;-1.72;80.83;95671.05;645756;216;32060;-74
2022/03/11 06:46:41;;;;;;;4.00;1.60;;;-1.80;1.40;;;-1.65;80.45;95673.37;619438;226;31949;-72
2022/03/11 06:49:23;;;;;;;2.00;1.75;;;-1.80;1.40;;;-1.57;80.81;95674.80;645872;212;31638;-76
2022/03/11 06:52:10;;;;;;;2.45;2.08;;;-1.80;1.40;;;-1.40;80.59;95676.33;647193;216;31987;-77
2022/03/11 06:54:57;;;;;;;2.30;2.10;;;-1.70;1.40;;;-1.40;79.84;95674.88;645144;212;31622;-73
2022/03/11 06:57:38;;;;;;;2.53;2.33;;;-1.60;1.40;;;-1.36;79.50;95676.31;647557;212;31996;-73
2022/03/11 07:00:23;;;;;;;5.15;2.17;;;-1.60;1.40;;;-1.26;79.29;95678.80;646643;212;31740;-73
2022/03/11 07:03:05;;;;;;;2.60;2.40;;;-1.50;1.40;;;-1.11;78.95;95678.70;646623;216;31578;-73
2022/03/11 07:05:53;;;;;;;2.28;1.80;;;-1.30;1.40;;;-0.96;78.81;95681.34;647881;216;42138;-77
2022/03/11 07:08:40;;;;;;;2.03;1.40;;;-1.20;1.40;;;-0.83;79.09;95685.52;634661;216;31781;-74
2022/03/11 07:11:22;;;;;;;3.60;2.62;;;-1.10;1.40;;;-0.68;78.52;95691.09;646071;212;31677;-76
2022/03/11 07:14:04;;;;;;;1.92;1.83;;;-0.90;1.40;;;-0.55;78.36;95691.98;646085;216;31558;-75
2022/03/11 07:16:52;;;;;;;4.10;2.40;;;-0.80;1.40;;;-0.68;77.52;95691.41;646941;216;31623;-77
2022/03/11 07:19:33;;;;;;;2.42;2.20;;;-0.90;1.40;;;-0.54;77.79;95693.48;647758;216;31572;-78
2022/03/11 07:22:21;;;;;;;3.05;2.50;;;-0.80;1.40;;;-0.51;77.57;95690.53;645784;212;31613;-76
2022/03/11 07:25:06;;;;;;;4.00;2.00;;;-0.70;1.40;;;-0.40;77.11;95696.11;645453;216;31661;-77
2022/03/11 07:27:52;;;;;;;2.60;1.87;;;-0.60;1.40;;;-0.29;77.11;95693.44;648051;216;31805;-77
2022/03/11 07:30:38;;;;;;;2.40;2.12;;;-0.50;1.40;;;-0.21;76.58;95693.93;641540;218;31630;-76
2022/03/11 07:35:54;;;;;;;2.50;2.22;;;-0.40;1.40;;;-0.11;76.69;95696.20;647005;216;31603;-77
2022/03/11 07:38:35;;;;;;;2.90;2.10;;;-0.20;1.40;;;-0.04;75.88;95692.60;646941;212;31605;-77
2022/03/11 07:41:25;;;;;;;2.50;1.90;;;-0.20;1.40;;;0.21;75.69;95697.84;645658;216;31593;-77
2022/03/11 07:44:13;;;;;;;2.65;1.60;;;0.00;1.40;;;0.52;75.23;95694.89;648219;212;31623;-75
2022/03/11 07:46:56;;;;;;;2.12;1.80;;;0.30;1.40;;;0.58;74.54;95699.97;646502;216;31577;-76
2022/03/11 07:49:42;;;;;;;3.60;2.60;;;0.30;1.40;;;0.64;73.79;95698.48;647119;216;31889;-77
2022/03/11 07:52:25;;;;;;;4.60;1.67;;;0.40;1.40;;;0.73;73.69;95700.80;647533;216;32199;-76
2022/03/11 07:55:07;;;;;;;2.20;2.00;;;0.60;1.40;;;0.88;73.26;95697.92;648213;216;32190;-76
2022/03/11 07:57:48;;;;;;;4.20;2.33;;;0.60;1.40;;;0.99;72.65;95700.45;647008;212;31688;-76
2022/03/11 08:00:30;;;;;;;6.93;2.08;;;0.70;1.40;;;1.10;72.67;95697.02;642557;215;31604;-76
2022/03/11 08:03:12;;;;;;;2.10;1.90;;;0.90;1.40;;;1.41;71.41;95700.41;646876;216;31588;-76
2022/03/11 08:05:55;;;;;;;2.90;2.40;;;1.00;1.40;;;1.26;70.83;95694.94;646441;212;31563;-76
2022/03/11 08:08:37;;;;;;;1.80;1.70;;;1.00;1.40;;;1.30;70.70;95692.27;619557;222;31943;-76
2022/03/11 08:11:18;;;;;;;4.32;2.70;;;1.10;1.40;;;1.60;70.91;95691.56;646639;216;31512;-76
2022/03/11 08:14:03;;;;;;;2.53;2.30;;;1.30;1.40;;;1.81;69.53;95691.35;647669;216;31573;-76
2022/03/11 08:16:45;;;;;;;3.50;1.70;;;1.60;1.40;;;1.76;69.02;95692.66;647817;212;31581;-76
2022/03/11 08:19:31;;;;;;;4.82;2.35;;;1.50;1.40;;;1.93;69.24;95685.73;646373;212;31780;-76
2022/03/11 08:22:13;;;;;;;3.78;2.80;;;1.60;1.40;;;2.24;68.59;95685.55;647193;216;31588;-76
2022/03/11 08:24:55;;;;;;;2.40;2.10;;;2.00;1.40;;;2.49;67.52;95685.91;647367;216;31589;-75
2022/03/11 08:27:37;;;;;;;6.32;2.30;;;2.10;1.40;;;2.72;68.75;95680.34;619402;222;42994;-76
2022/03/11 08:30:20;;;;;;;2.20;1.75;;;2.40;1.40;;;2.95;66.46;95679.13;620488;222;31970;-76
2022/03/11 08:35:53;;;;;;;3.00;2.50;;;2.70;1.40;;;2.83;65.33;95675.25;646669;212;32156;-77
2022/03/11 08:38:34;;;;;;;2.70;1.95;;;2.50;1.40;;;2.70;64.59;95675.02;646310;212;31610;-76
2022/03/11 08:41:20;;;;;;;3.90;2.20;;;2.40;1.40;;;2.97;64.79;95674.55;632617;217;32573;-76
2022/03/11 08:44:03;;;;;;;2.10;1.90;;;2.70;1.40;;;3.06;63.61;95670.23;645792;213;31561;-76
2022/03/11 08:46:43;;;;;;;3.17;2.15;;;2.70;1.40;;;3.47;63.66;95661.31;647884;212;31666;-75
2022/03/11 08:49:25;;;;;;;3.60;2.10;;;3.20;1.40;;;4.00;63.25;95664.66;646970;212;31741;-75
2022/03/11 08:52:17;;;;;;;4.97;2.28;;;3.70;1.40;;;3.99;62.23;95660.41;647509;212;31593;-76
2022/03/11 08:54:59;;;;;;;3.17;2.35;;;3.80;1.40;;;3.64;61.08;95659.34;645985;216;31603;-76
2022/03/11 08:57:40;;;;;;;4.37;2.50;;;3.40;1.40;;;3.70;61.74;95666.84;647111;216;42200;-75
2022/03/11 09:00:22;;;;;;;4.32;3.08;;;3.50;1.40;;;4.05;60.80;95656.59;647900;212;31605;-76
2022/03/11 09:03:05;;;;;;;2.80;1.98;;;3.90;1.40;;;4.93;60.88;95653.83;647148;212;31488;-76
2022/03/11 09:05:48;;;;;;;4.70;3.00;;;4.80;1.40;;;4.56;57.69;95650.36;645718;212;31641;-75
2022/03/11 09:08:31;;;;;;;4.55;2.67;;;4.50;1.40;;;5.51;57.52;95650.16;646164;216;31670;-77
2022/03/11 09:11:12;;;;;;;4.18;2.97;;;5.90;1.40;;;6.99;52.77;95642.64;643067;217;43548;-76
2022/03/11 09:13:54;;;;;;;3.50;2.60;;;8.90;1.40;;;8.65;48.39;95644.23;646304;216;32792;-76
2022/03/11 09:16:36;;;;;;;5.15;3.22;;;10.70;1.40;;;9.09;44.67;95650.37;619013;226;32809;-77
2022/03/11 09:19:19;;;;;;;4.40;3.80;;;9.50;1.40;;;8.72;45.87;95652.16;648300;212;31710;-76
2022/03/11 09:22:04;;;;;;;4.50;3.70;;;10.10;1.40;;;9.86;44.35;95645.67;646859;212;31546;-75
2022/03/11 09:24:45;;;;;;;5.07;3.27;;;11.10;1.40;;;11.51;39.75;95642.88;646842;212;31625;-75
2022/03/11 09:27:31;;;;;;;4.85;3.45;;;10.60;1.40;;;13.53;43.23;95638.32;619796;226;32596;-75
2022/03/11 09:30:13;;;;;;;5.30;3.70;;;13.40;1.40;;;16.77;41.51;95627.95;646498;212;31734;-75
2022/03/11 09:32:55;;;;;;;3.33;3.03;;;15.50;1.40;;;18.50;35.03;95629.57;647777;212;32068;-75
2022/03/11 09:36:02;;;;;;;6.32;4.32;;;15.00;1.40;;;20.11;33.46;95624.47;622559;222;31945;-74
2022/03/11 09:38:44;;;;;;;4.15;3.50;;;15.80;1.40;;;19.68;34.00;95629.04;647870;212;32261;-75
2022/03/11 09:41:27;;;;;;;5.93;3.60;;;16.40;1.40;;;19.43;34.89;95629.23;647921;212;32122;-74
2022/03/11 09:44:08;;;;;;;4.18;3.70;;;15.90;1.40;;;16.43;29.56;95639.09;646048;216;32153;-75
2022/03/11 09:46:53;;;;;;;5.40;3.85;;;13.00;1.40;;;10.89;36.57;95652.95;645885;212;32753;-75
2022/03/11 09:49:35;;;;;;;5.18;4.00;;;10.60;1.40;;;16.10;34.20;95634.27;646730;212;42197;-74
2022/03/11 09:52:20;;;;;;;4.28;3.80;;;14.50;1.40;;;19.20;29.63;95624.73;646463;216;31581;-75
2022/03/11 09:55:02;;;;;;;5.60;4.30;;;15.30;1.40;;;18.36;31.69;95632.91;619723;222;32029;-76
2022/03/11 09:57:47;;;;;;;4.95;3.85;;;15.40;1.40;;;21.79;30.34;95613.18;646094;212;42936;-76
2022/03/11 10:00:28;;;;;;;5.22;4.50;;;17.30;99.90;;;21.89;26.98;95617.34;618329;222;31953;-75
2022/03/11 10:03:10;;;;;;;4.93;4.00;;;16.80;99.90;;;18.85;26.73;95617.94;647179;212;31611;-76
2022/03/11 10:05:52;;;;;;;7.20;3.80;;;15.30;1.40;;;16.26;30.22;95620.22;619264;226;31948;-76
2022/03/11 10:11:24;;;;;;;5.00;4.40;;;11.70;1.40;;;16.62;32.21;95609.13;633841;221;31893;-75
2022/03/11 10:14:10;;;;;;;4.60;3.30;;;15.20;1.40;;;15.44;32.90;95615.29;646681;212;31632;-75
2022/03/11 10:16:52;;;;;;;6.90;3.65;;;14.10;1.40;;;17.38;31.65;95607.19;646820;212;32077;-75
2022/03/11 10:19:36;;;;;;;4.82;4.30;;;16.00;1.40;;;19.07;31.36;95601.81;619690;226;31910;-76
2022/03/11 10:22:17;;;;;;;5.55;4.47;;;16.90;1.40;;;20.21;29.42;95596.69;620136;222;32054;-75
2022/03/11 10:25:09;;;;;;;5.10;3.37;;;17.10;1.40;;;21.36;28.17;95591.31;645571;212;31612;-75
2022/03/11 10:27:55;;;;;;;4.87;3.83;;;17.90;1.40;;;20.68;29.62;95592.55;646364;212;31758;-76
2022/03/11 10:30:39;;;;;;;4.80;3.87;;;16.60;1.40;;;16.08;28.90;95603.27;646831;212;31690;-75
2022/03/11 10:35:54;;;;;;;5.50;3.90;;;12.90;1.40;;;17.42;28.97;95603.89;645862;212;40992;-75
2022/03/11 10:38:38;;;;;;;5.63;4.23;;;14.80;1.40;;;14.38;31.13;95608.72;646965;216;31606;-74
2022/03/11 10:41:19;;;;;;;4.93;3.85;;;12.60;1.40;;;14.94;30.84;95612.74;647073;212;31610;-75
2022/03/11 10:44:04;;;;;;;4.07;3.67;;;13.90;1.40;;;17.96;28.88;95613.45;647752;212;31999;-75
2022/03/11 10:46:45;;;;;;;4.55;3.83;;;14.60;1.40;;;21.27;27.77;95595.89;645643;212;31601;-76
2022/03/11 10:49:32;;;;;;;5.70;4.62;;;18.60;99.90;;;23.86;25.09;95589.91;647918;216;31578;-74
2022/03/11 10:52:12;;;;;;;4.82;3.97;;;17.20;99.90;;;20.61;27.85;95594.67;647530;216;31733;-75
2022/03/11 10:54:57;;;;;;;4.80;4.30;;;17.30;1.40;;;19.59;28.50;95598.72;618910;226;31939;-76
2022/03/11 10:57:39;;;;;;;5.40;3.90;;;16.50;99.90;;;20.32;28.06;95590.16;619688;222;32001;-75
2022/03/11 11:00:27;;;;;;;5.82;4.50;;;17.40;1.40;;;22.52;24.26;95596.45;646690;216;42197;-75
2022/03/11 11:03:08;;;;;;;4.85;3.83;;;18.40;1.40;;;15.95;29.58;95603.92;647105;216;31653;-75
2022/03/11 11:05:50;;;;;;;5.35;4.20;;;13.20;1.40;;;15.79;29.81;95596.22;647890;216;32292;-75
2022/03/11 11:08:33;;;;;;;5.32;4.10;;;14.40;1.40;;;15.85;29.93;95592.63;647122;212;32135;-75
2022/03/11 11:11:15;;;;;;;4.80;4.30;;;14.90;1.40;;;14.25;31.19;95595.97;618661;222;31988;-75
2022/03/11 11:13:59;;;;;;;4.10;3.50;;;13.00;1.40;;;19.69;28.62;95576.46;646702;212;31601;-75
2022/03/11 11:16:44;;;;;;;5.60;4.30;;;17.90;1.40;;;22.81;24.73;95568.39;646964;212;32504;-75
2022/03/11 11:19:26;;;;;;;7.53;5.40;;;19.50;1.40;;;24.48;24.18;95555.33;646787;216;31625;-75
2022/03/11 11:22:11;;;;;;;7.25;4.68;;;19.90;1.40;;;21.31;26.45;95559.38;643412;216;31590;-74
2022/03/11 11:24:56;;;;;;;5.20;4.70;;;17.80;99.90;;;22.56;23.41;95558.67;646690;216;31704;-75
2022/03/11 11:27:38;;;;;;;5.68;4.62;;;18.50;99.90;;;18.91;26.56;95558.48;647847;212;31699;-75
2022/03/11 11:30:20;;;;;;;5.57;4.47;;;16.20;99.90;;;19.97;27.23;95557.84;619982;225;31948;-75
2022/03/11 11:36:01;;;;;;;6.00;4.90;;;18.30;99.90;;;25.25;24.12;95541.30;646706;212;33469;-76
2022/03/11 11:38:42;;;;;;;8.02;5.05;;;20.00;99.90;;;25.81;22.87;95545.86;647495;216;31779;-75
2022/03/11 11:41:23;;;;;;;6.50;3.70;;;20.30;99.90;;;27.13;21.29;95543.43;646312;216;31543;-75
2022/03/11 11:44:06;;;;;;;5.43;4.45;;;20.40;1.40;;;28.82;20.88;95537.10;647026;216;31676;-75
2022/03/11 11:47:05;;;;;;;5.43;4.05;;;20.50;99.90;;;20.54;24.05;95556.31;646264;216;31588;-75
2022/03/11 11:49:55;;;;;;;6.72;5.10;;;14.30;99.90;;;22.17;25.00;95548.41;619078;222;31884;-75
2022/03/11 11:52:37;;;;;;;6.22;4.90;;;18.20;99.90;;;24.02;24.22;95535.58;619748;222;31981;-74
2022/03/11 11:55:20;;;;;;;5.37;4.72;;;19.50;99.90;;;25.54;23.12;95528.55;618173;226;33832;-74
2022/03/11 11:58:02;;;;;;;5.70;5.10;;;20.30;99.90;;;27.59;21.11;95520.43;645898;215;31604;-75
2022/03/11 12:00:47;;;;;;;8.20;5.15;;;20.80;99.90;;;28.66;19.95;95520.20;646187;216;32192;-76
2022/03/11 12:03:48;;;;;;;5.20;4.40;;;20.70;99.90;;;26.70;21.26;95524.09;646915;216;31544;-75
2022/03/11 12:06:51;;;;;;;7.10;4.78;;;20.00;99.90;;;25.04;21.90;95525.98;616798;222;32337;-75
2022/03/11 12:09:48;;;;;;;6.47;4.90;;;20.00;1.40;;;26.29;21.24;95531.23;647551;212;31669;-74
2022/03/11 12:12:58;;;;;;;5.30;4.43;;;18.90;99.90;;;23.23;21.61;95536.36;646402;216;31591;-75
2022/03/11 12:15:40;;;;;;;7.62;5.35;;;16.50;99.90;;;19.42;26.85;95531.27;647205;212;31724;-75
2022/03/11 12:20:58;;;;;;;7.28;5.10;;;17.00;1.40;;;19.57;26.08;95528.41;619717;225;31918;-74
2022/03/11 12:23:38;;;;;;;5.60;4.80;;;17.10;1.40;;;16.12;28.76;95530.66;647374;216;31554;-76
2022/03/11 12:26:20;;;;;;;7.05;5.10;;;14.80;1.40;;;19.66;25.46;95519.11;647099;212;31599;-74
2022/03/11 12:29:01;;;;;;;7.30;5.80;;;17.10;1.40;;;21.23;25.43;95507.48;646983;216;31611;-75
2022/03/11 12:31:43;;;;;;;5.18;4.65;;;18.20;1.40;;;24.10;22.85;95490.97;619642;222;31929;-74
2022/03/11 12:35:53;;;;;;;8.43;4.85;;;17.40;99.90;;;17.61;26.78;95506.04;647052;214;31940;-75
2022/03/11 12:38:37;;;;;;;7.37;4.87;;;13.90;99.90;;;19.29;26.95;95490.55;620614;222;32117;-74
2022/03/11 12:41:17;;;;;;;6.53;5.07;;;17.20;1.40;;;24.60;22.36;95476.58;645899;216;31777;-74
2022/03/11 12:43:59;;;;;;;6.25;4.55;;;19.80;1.40;;;26.14;21.14;95474.66;646508;212;31561;-74